Time;durP1;ratioP1;P1;durP2;ratioP2;P2;SDS_P1;SDS_P2;PMS_P1;PMS_P2;Temp;Humidity;BMP_temperature;BMP_pressure;BME280_temperature;BME280_humidity;BME280_pressure;Samples;Min_cycle;Max_cycle;Signal;HPM_P1;HPM_P2
2022/12/24 00:00:25;;;;;;;3.05;1.02;;;;;;;7.29;100.00;92519.78;2098469;28;20619;-82
2022/12/24 00:01:27;;;;;;;7.05;1.40;;;;;;;7.31;100.00;92530.75;2106836;28;20682;-83
2022/12/24 00:02:28;;;;;;;2.75;0.82;;;;;;;7.25;100.00;92519.09;2098536;28;20017;-81
2022/12/24 00:03:29;;;;;;;3.63;1.23;;;;;;;7.46;100.00;92529.31;2098338;28;20031;-82
2022/12/24 00:04:30;;;;;;;3.17;0.80;;;;;;;7.46;100.00;92516.03;2106742;28;20032;-83
2022/12/24 00:05:31;;;;;;;6.70;1.13;;;;;;;7.36;100.00;92510.91;2115098;28;20053;-83
2022/12/24 00:06:32;;;;;;;1.42;1.00;;;;;;;7.38;100.00;92516.56;2114792;28;20023;-82
2022/12/24 00:07:33;;;;;;;4.68;1.10;;;;;;;7.49;100.00;92519.75;2106659;28;20024;-82
2022/12/24 00:08:34;;;;;;;9.63;1.52;;;;;;;7.22;100.00;92522.56;2098190;28;20074;-83
2022/12/24 00:09:35;;;;;;;3.53;1.05;;;;;;;7.33;100.00;92520.44;2106513;28;20028;-83
2022/12/24 00:10:36;;;;;;;5.13;1.20;;;;;;;7.05;100.00;92522.47;2106551;28;20032;-83
2022/12/24 00:11:37;;;;;;;5.93;1.15;;;;;;;7.13;100.00;92535.63;2114731;28;20023;-83
2022/12/24 00:12:38;;;;;;;6.90;1.00;;;;;;;7.14;100.00;92537.88;2114888;28;20398;-83
2022/12/24 00:13:39;;;;;;;4.80;0.98;;;;;;;6.94;100.00;92532.56;2106292;28;20445;-82
2022/12/24 00:14:40;;;;;;;6.15;1.67;;;;;;;6.92;100.00;92545.47;2106343;28;20031;-83
2022/12/24 00:15:41;;;;;;;4.15;1.30;;;;;;;6.92;100.00;92531.44;2114728;28;20384;-82
2022/12/24 00:16:42;;;;;;;6.53;1.40;;;;;;;6.80;100.00;92536.22;2106135;28;20047;-83
2022/12/24 00:17:43;;;;;;;4.85;1.30;;;;;;;6.83;100.00;92542.59;2106498;27;20051;-82
2022/12/24 00:18:44;;;;;;;3.75;0.95;;;;;;;6.86;100.00;92538.41;2114730;28;20027;-82
2022/12/24 00:19:51;;;;;;;6.55;1.33;;;;;;;7.02;100.00;92563.16;2106685;28;20103;-83
2022/12/24 00:20:52;;;;;;;5.20;1.02;;;;;;;7.28;100.00;92548.25;2107439;28;20026;-83
2022/12/24 00:21:53;;;;;;;7.68;1.33;;;;;;;7.17;100.00;92553.03;2106419;28;20027;-83
2022/12/24 00:22:54;;;;;;;6.25;1.10;;;;;;;7.25;100.00;92553.66;2106400;28;20068;-82
2022/12/24 00:23:55;;;;;;;4.28;1.10;;;;;;;6.96;100.00;92548.81;2098081;28;20028;-82
2022/12/24 00:24:56;;;;;;;3.38;0.98;;;;;;;7.00;100.00;92548.78;2098017;28;20051;-81
2022/12/24 00:25:56;;;;;;;6.70;1.05;;;;;;;6.84;100.00;92546.00;2098346;28;20059;-82
2022/12/24 00:26:57;;;;;;;7.55;1.55;;;;;;;7.11;100.00;92546.66;2098028;28;20024;-83
2022/12/24 00:27:58;;;;;;;6.10;1.13;;;;;;;7.01;100.00;92556.31;2105993;28;20094;-81
2022/12/24 00:28:59;;;;;;;7.65;1.30;;;;;;;6.79;100.00;92549.88;2114820;28;20023;-83
2022/12/24 00:30:00;;;;;;;8.48;1.10;;;;;;;7.03;100.00;92553.28;2114748;28;20019;-82
2022/12/24 00:31:14;;;;;;;4.82;1.30;;;;;;;7.19;100.00;92550.69;2114686;28;20034;-82
2022/12/24 00:32:15;;;;;;;6.13;1.13;;;;;;;7.44;100.00;92555.56;2101135;28;20074;-83
2022/12/24 00:33:16;;;;;;;3.65;1.30;;;;;;;7.16;100.00;92548.13;2097020;28;20401;-82
2022/12/24 00:34:17;;;;;;;4.18;1.17;;;;;;;6.94;100.00;92540.53;2097383;28;20541;-82
2022/12/24 00:35:18;;;;;;;6.05;1.30;;;;;;;6.84;100.00;92538.03;2097853;28;20021;-83
2022/12/24 00:36:19;;;;;;;9.45;1.80;;;;;;;6.85;100.00;92540.31;2106366;28;20024;-82
2022/12/24 00:37:20;;;;;;;3.55;1.10;;;;;;;6.83;100.00;92547.91;2114750;28;20019;-83
2022/12/24 00:38:21;;;;;;;6.32;1.23;;;;;;;6.80;100.00;92556.69;2114714;28;20100;-83
2022/12/24 00:39:22;;;;;;;5.72;1.40;;;;;;;6.64;100.00;92548.63;2106709;27;20492;-83
2022/12/24 00:40:23;;;;;;;4.57;1.30;;;;;;;6.51;100.00;92551.84;2106486;28;20074;-83
2022/12/24 00:41:24;;;;;;;3.00;1.45;;;;;;;6.46;100.00;92556.88;2104898;28;20057;-82
2022/12/24 00:42:25;;;;;;;6.20;1.30;;;;;;;6.36;100.00;92553.19;2106364;28;20465;-82
2022/12/24 00:43:27;;;;;;;7.53;1.50;;;;;;;6.48;100.00;92567.81;2112169;28;20024;-82
2022/12/24 00:44:28;;;;;;;4.45;1.23;;;;;;;6.98;100.00;92565.13;2098361;28;20028;-82
2022/12/24 00:45:29;;;;;;;6.82;1.23;;;;;;;6.97;100.00;92566.25;2097936;28;20487;-84
2022/12/24 00:46:32;;;;;;;5.82;1.08;;;;;;;6.95;100.00;92560.63;2106221;28;20050;-84
2022/12/24 00:47:33;;;;;;;10.20;1.55;;;;;;;6.85;100.00;92555.47;2106991;27;20066;-83
2022/12/24 00:48:34;;;;;;;5.38;1.27;;;;;;;6.96;100.00;92564.03;2105998;28;20027;-83
2022/12/24 00:49:35;;;;;;;6.88;1.27;;;;;;;6.83;100.00;92558.53;2097901;28;20020;-82
2022/12/24 00:50:50;;;;;;;6.65;1.10;;;;;;;6.74;100.00;92559.06;2104483;28;20481;-83
2022/12/24 00:51:51;;;;;;;5.82;1.10;;;;;;;6.90;100.00;92569.06;2101922;28;20035;-82
2022/12/24 00:52:52;;;;;;;5.85;1.23;;;;;;;6.73;100.00;92564.78;2097879;28;20070;-83
2022/12/24 00:53:53;;;;;;;5.90;1.45;;;;;;;6.88;100.00;92565.28;2105915;28;20016;-82
2022/12/24 00:54:54;;;;;;;3.33;1.02;;;;;;;7.09;100.00;92572.16;2106320;28;20024;-82
2022/12/24 00:55:55;;;;;;;5.97;1.20;;;;;;;6.99;100.00;92574.59;2106187;28;20020;-82
2022/12/24 00:56:56;;;;;;;5.78;1.20;;;;;;;7.14;100.00;92574.34;2097478;28;20032;-81
2022/12/24 00:57:57;;;;;;;5.85;1.35;;;;;;;7.11;100.00;92581.22;2097151;28;20074;-83
2022/12/24 00:58:58;;;;;;;4.93;1.38;;;;;;;7.17;100.00;92584.91;2106122;28;20081;-83
2022/12/24 00:59:59;;;;;;;4.43;1.08;;;;;;;7.02;100.00;92580.97;2114476;28;20502;-82
2022/12/24 01:01:01;;;;;;;3.17;1.25;;;;;;;7.05;100.00;92596.88;2114535;28;20082;-83
2022/12/24 01:02:02;;;;;;;5.20;1.20;;;;;;;7.23;100.00;92591.25;2106189;28;20110;-82
2022/12/24 01:03:03;;;;;;;6.13;1.63;;;;;;;7.33;100.00;92600.19;2106205;28;20024;-83
2022/12/24 01:05:23;;;;;;;4.07;1.30;;;;;;;7.53;100.00;92595.66;2117117;27;20024;-82
2022/12/24 01:06:24;;;;;;;7.18;1.20;;;;;;;7.32;100.00;92596.03;2114476;28;20020;-83
2022/12/24 01:07:25;;;;;;;7.32;1.27;;;;;;;7.29;100.00;92599.53;2114462;28;20034;-84
2022/12/24 01:08:26;;;;;;;6.63;1.98;;;;;;;7.22;100.00;92594.31;2106081;28;20107;-84
2022/12/24 01:09:27;;;;;;;8.27;1.20;;;;;;;7.35;100.00;92586.50;2097406;28;20074;-83
2022/12/24 01:10:28;;;;;;;3.13;0.88;;;;;;;7.20;100.00;92592.09;2097737;28;20025;-83
2022/12/24 01:11:29;;;;;;;7.38;1.45;;;;;;;7.18;100.00;92606.94;2106139;28;20027;-82
2022/12/24 01:12:30;;;;;;;5.28;1.63;;;;;;;7.15;100.00;92592.53;2114420;28;20028;-83
2022/12/24 01:13:32;;;;;;;5.18;1.38;;;;;;;7.20;100.00;92596.63;2114343;28;20027;-83
2022/12/24 01:14:33;;;;;;;5.50;1.45;;;;;;;7.09;100.00;92594.16;2105993;28;20028;-83
2022/12/24 01:15:35;;;;;;;4.88;1.77;;;;;;;7.36;100.00;92591.41;2097772;28;20025;-82
2022/12/24 01:16:37;;;;;;;7.53;1.58;;;;;;;7.38;100.00;92591.75;2106213;28;20039;-82
2022/12/24 01:17:38;;;;;;;9.52;1.65;;;;;;;7.28;100.00;92593.44;2097708;28;20041;-84
2022/12/24 01:18:39;;;;;;;6.15;1.63;;;;;;;7.27;100.00;92599.91;2097791;28;20376;-83
2022/12/24 01:19:40;;;;;;;6.63;1.52;;;;;;;7.22;100.00;92599.63;2097588;28;20040;-83
2022/12/24 01:20:41;;;;;;;7.60;1.40;;;;;;;7.21;100.00;92595.50;2097623;28;20020;-82
2022/12/24 01:21:42;;;;;;;4.55;1.45;;;;;;;7.39;100.00;92601.22;2097849;28;20110;-83
2022/12/24 01:22:44;;;;;;;4.40;1.00;;;;;;;7.42;100.00;92595.13;2106094;28;20202;-83
2022/12/24 01:23:46;;;;;;;4.22;1.40;;;;;;;7.34;100.00;92591.06;2114457;27;20030;-82
2022/12/24 01:24:47;;;;;;;9.85;1.88;;;;;;;7.27;100.00;92583.97;2114549;28;20031;-83
2022/12/24 01:25:48;;;;;;;9.77;1.58;;;;;;;7.32;100.00;92591.47;2114334;28;20016;-83
2022/12/24 01:26:49;;;;;;;6.72;1.40;;;;;;;7.34;100.00;92588.41;2114333;28;20499;-84
2022/12/24 01:27:50;;;;;;;8.80;1.90;;;;;;;7.48;100.00;92596.13;2105783;28;20023;-84
2022/12/24 01:28:52;;;;;;;9.85;1.50;;;;;;;7.35;100.00;92589.91;2105895;28;20027;-82
2022/12/24 01:29:53;;;;;;;6.43;1.30;;;;;;;7.27;100.00;92580.56;2106056;28;20024;-84
2022/12/24 01:30:54;;;;;;;7.90;1.25;;;;;;;7.41;100.00;92598.16;2097457;28;20424;-84
2022/12/24 01:31:55;;;;;;;5.72;1.23;;;;;;;7.47;100.00;92591.97;2105909;28;20709;-83
2022/12/24 01:32:56;;;;;;;8.32;1.70;;;;;;;7.33;100.00;92581.56;2105818;28;20016;-83
2022/12/24 01:33:57;;;;;;;10.93;1.75;;;;;;;7.26;100.00;92598.41;2105907;28;20077;-82
2022/12/24 01:34:58;;;;;;;9.30;1.65;;;;;;;7.17;100.00;92584.91;2122651;27;20030;-83
2022/12/24 01:36:02;;;;;;;5.57;1.30;;;;;;;7.14;100.00;92593.69;2105816;28;20047;-84
2022/12/24 01:37:03;;;;;;;5.95;1.25;;;;;;;7.26;100.00;92601.09;2106274;28;20077;-83
2022/12/24 01:38:04;;;;;;;7.03;1.95;;;;;;;7.31;100.00;92594.53;2105722;28;20581;-83
2022/12/24 01:39:05;;;;;;;8.80;2.05;;;;;;;7.47;100.00;92605.28;2097360;28;20024;-84
2022/12/24 01:44:33;;;;;;;9.88;1.65;;;;;;;7.43;100.00;92606.50;2117019;27;20034;-84
2022/12/24 01:45:44;;;;;;;6.45;1.40;;;;;;;7.39;100.00;92609.22;2109012;28;20033;-82
2022/12/24 01:46:47;;;;;;;8.65;1.48;;;;;;;7.32;100.00;92606.66;2100286;28;20024;-84
2022/12/24 01:47:48;;;;;;;6.53;1.52;;;;;;;7.51;100.00;92611.28;2106890;27;20024;-83
2022/12/24 01:48:55;;;;;;;6.65;1.58;;;;;;;7.49;100.00;92615.50;2106361;28;20186;-84
2022/12/24 01:50:00;;;;;;;8.05;1.42;;;;;;;7.36;100.00;92604.69;2108928;27;20103;-82
2022/12/24 01:51:11;;;;;;;2.20;0.90;;;;;;;7.36;100.00;92618.00;2114814;27;20035;-82
2022/12/24 01:52:18;;;;;;;8.20;2.00;;;;;;;7.29;100.00;92600.28;2123831;27;20033;-85
2022/12/24 01:53:19;;;;;;;8.40;1.40;;;;;;;7.27;100.00;92604.47;2123490;27;20512;-83
2022/12/24 01:54:27;;;;;;;9.05;2.22;;;;;;;7.48;100.00;92608.69;2122481;27;20019;-84
2022/12/24 01:55:28;;;;;;;7.97;1.50;;;;;;;7.46;100.00;92610.97;2115129;27;20023;-83
2022/12/24 01:56:31;;;;;;;7.30;1.48;;;;;;;7.19;100.00;92609.16;2105657;28;20024;-83
2022/12/24 01:57:55;;;;;;;6.78;1.05;;;;;;;7.28;100.00;92608.63;2114314;27;20023;-83
2022/12/24 01:59:01;;;;;;;6.70;1.58;;;;;;;7.37;100.00;92608.09;2125824;27;20026;-84
2022/12/24 02:00:09;;;;;;;8.90;1.33;;;;;;;7.32;100.00;92604.00;2114877;27;20047;-83
2022/12/24 02:01:10;;;;;;;6.55;1.60;;;;;;;7.18;100.00;92610.31;2107504;28;20366;-83
2022/12/24 02:02:12;;;;;;;6.93;1.48;;;;;;;7.12;100.00;92613.88;2114172;27;20106;-83
2022/12/24 02:03:13;;;;;;;7.18;1.60;;;;;;;7.36;100.00;92614.59;2114139;28;20048;-83
2022/12/24 02:04:52;;;;;;;7.72;1.67;;;;;;;7.43;100.00;92601.91;2105720;28;20485;-83
2022/12/24 02:05:56;;;;;;;11.52;1.40;;;;;;;7.21;100.00;92616.75;2116136;27;20423;-83
2022/12/24 02:06:57;;;;;;;10.48;1.55;;;;;;;7.28;100.00;92622.69;2115073;27;20028;-82
2022/12/24 02:08:01;;;;;;;6.78;1.40;;;;;;;7.07;100.00;92623.81;2113924;28;20110;-82
2022/12/24 02:09:02;;;;;;;9.00;2.38;;;;;;;7.11;100.00;92623.72;2114110;28;20841;-84
2022/12/24 02:10:05;;;;;;;10.15;1.63;;;;;;;7.06;100.00;92629.50;2105824;28;20585;-82
2022/12/24 02:11:13;;;;;;;8.52;1.65;;;;;;;7.14;100.00;92632.81;2106037;28;20113;-84
2022/12/24 02:12:14;;;;;;;7.72;1.48;;;;;;;7.24;100.00;92635.31;2116239;27;20019;-83
2022/12/24 02:13:19;;;;;;;7.43;1.55;;;;;;;7.06;100.00;92642.78;2113857;28;20409;-83
2022/12/24 02:14:21;;;;;;;9.25;1.30;;;;;;;7.14;100.00;92627.50;2114250;28;20020;-82
2022/12/24 02:15:22;;;;;;;10.38;1.70;;;;;;;6.96;100.00;92643.72;2114034;28;20440;-83
2022/12/24 02:28:27;;;;;;;;;;;;;;;6.70;100.00;92658.53;2593909;22;20491;-84
2022/12/24 02:29:46;;;;;;;;;;;;;;;6.56;100.00;92665.56;2561169;23;19939;-85
2022/12/24 02:30:52;;;;;;;5.82;1.00;;;;;;;6.88;100.00;92669.66;2555828;23;19976;-84
2022/12/24 02:32:04;;;;;;;7.60;1.20;;;;;;;6.67;100.00;92665.41;2560564;23;20005;-84
2022/12/24 02:33:26;;;;;;;8.98;1.60;;;;;;;6.42;100.00;92665.75;2552822;23;20318;-84
2022/12/24 02:34:33;;;;;;;6.38;1.20;;;;;;;6.46;100.00;92663.81;2573057;23;20412;-84
2022/12/24 02:36:00;;;;;;;7.57;1.52;;;;;;;6.38;100.00;92673.00;2572438;23;20008;-85
2022/12/24 02:37:08;;;;;;;10.75;1.60;;;;;;;6.30;100.00;92668.94;2552610;23;20168;-84
2022/12/24 02:38:23;;;;;;;6.28;1.45;;;;;;;6.27;100.00;92659.13;2548881;23;20413;-84
2022/12/24 02:39:37;;;;;;;6.78;1.65;;;;;;;6.21;100.00;92663.38;2553135;23;20067;-84
2022/12/24 02:40:54;;;;;;;7.55;1.75;;;;;;;6.22;100.00;92672.84;2551018;23;20012;-84
2022/12/24 02:42:06;;;;;;;5.05;1.27;;;;;;;6.28;100.00;92679.97;2542341;23;20005;-83
2022/12/24 02:43:13;;;;;;;5.28;1.67;;;;;;;6.48;100.00;92682.72;2540663;23;20492;-83
2022/12/24 02:44:16;;;;;;;8.40;1.55;;;;;;;6.28;100.00;92681.88;2561246;23;20023;-84
2022/12/24 02:45:21;;;;;;;9.30;1.70;;;;;;;6.35;100.00;92689.72;2560518;23;20060;-84
2022/12/24 02:46:30;;;;;;;8.07;1.40;;;;;;;6.16;100.00;92693.00;2549563;23;20012;-84
2022/12/24 02:47:32;;;;;;;8.95;1.75;;;;;;;6.32;100.00;92693.16;2549726;23;20005;-84
2022/12/24 02:48:36;;;;;;;5.65;1.52;;;;;;;6.21;100.00;92706.59;2548491;23;20009;-85
2022/12/24 02:49:37;;;;;;;6.55;1.55;;;;;;;6.19;100.00;92698.28;2548615;23;20012;-83
2022/12/24 02:50:38;;;;;;;6.15;1.40;;;;;;;6.09;100.00;92701.78;2548044;23;20005;-83
2022/12/24 02:51:39;;;;;;;6.93;1.40;;;;;;;5.99;100.00;92705.34;2548510;23;20032;-85
2022/12/24 02:52:45;;;;;;;9.73;2.42;;;;;;;6.23;100.00;92706.19;2560632;23;20522;-84
2022/12/24 02:53:46;;;;;;;9.85;2.00;;;;;;;6.48;100.00;92697.91;2561313;23;20337;-84
2022/12/24 02:54:46;;;;;;;10.45;1.40;;;;;;;6.30;100.00;92706.84;2572939;23;20035;-84
2022/12/24 02:56:02;;;;;;;11.05;1.67;;;;;;;6.08;100.00;92700.28;2560610;23;20088;-84
2022/12/24 02:57:16;;;;;;;3.83;1.38;;;;;;;5.91;100.00;92709.19;2554077;23;20006;-82
2022/12/24 02:59:01;;;;;;;6.55;1.73;;;;;;;5.77;100.00;92712.72;2563163;23;20005;-84
2022/12/24 03:00:07;;;;;;;9.40;1.48;;;;;;;5.57;100.00;92712.53;2565424;23;20420;-83
2022/12/24 03:01:32;;;;;;;6.72;1.50;;;;;;;5.50;100.00;92712.63;2549377;23;20514;-82
2022/12/24 03:02:51;;;;;;;5.10;1.17;;;;;;;5.42;100.00;92711.19;2553069;23;20005;-84
2022/12/24 03:04:06;;;;;;;7.90;1.27;;;;;;;5.39;100.00;92714.59;2564360;23;20062;-83
2022/12/24 03:05:44;;;;;;;6.22;1.50;;;;;;;5.37;100.00;92714.25;2563330;23;20428;-83
2022/12/24 03:06:58;;;;;;;3.88;1.40;;;;;;;5.23;100.00;92718.53;2572930;23;20008;-85
2022/12/24 03:08:07;;;;;;;7.93;1.38;;;;;;;5.21;100.00;92725.34;2550640;23;20488;-85
2022/12/24 03:09:25;;;;;;;5.38;1.35;;;;;;;5.16;100.00;92731.06;2539210;23;20457;-83
2022/12/24 03:10:37;;;;;;;9.20;1.55;;;;;;;5.14;100.00;92736.03;2551722;23;20012;-83
2022/12/24 03:11:43;;;;;;;6.25;1.67;;;;;;;5.19;100.00;92748.84;2552721;23;20013;-85
2022/12/24 03:12:50;;;;;;;7.78;1.27;;;;;;;5.19;100.00;92754.16;2548641;23;20029;-84
2022/12/24 03:13:53;;;;;;;8.07;1.77;;;;;;;5.12;100.00;92760.22;2537226;23;20069;-83
2022/12/24 03:14:55;;;;;;;5.45;1.65;;;;;;;5.08;100.00;92762.16;2535649;23;20009;-83
2022/12/24 03:15:56;;;;;;;3.05;1.10;;;;;;;5.02;100.00;92756.53;2546962;23;20009;-83
2022/12/24 03:16:57;;;;;;;8.10;1.50;;;;;;;4.96;100.00;92747.50;2559246;23;20423;-83
2022/12/24 03:18:02;;;;;;;7.43;1.50;;;;;;;4.88;100.00;92748.69;2559366;23;20035;-85
2022/12/24 03:19:03;;;;;;;9.88;1.40;;;;;;;4.92;100.00;92751.31;2559399;23;20001;-84
2022/12/24 03:20:05;;;;;;;5.47;1.10;;;;;;;4.88;100.00;92753.97;2546157;23;20005;-84
2022/12/24 03:21:16;;;;;;;3.78;1.30;;;;;;;4.89;100.00;92746.78;2547632;23;20448;-84
2022/12/24 03:22:18;;;;;;;4.25;1.30;;;;;;;4.77;100.00;92740.03;2540066;23;20013;-85
2022/12/24 03:23:19;;;;;;;4.50;1.42;;;;;;;4.64;100.00;92746.91;2559850;23;20012;-84
2022/12/24 03:24:20;;;;;;;6.22;0.95;;;;;;;4.64;100.00;92741.63;2546939;23;20056;-84
2022/12/24 03:25:24;;;;;;;7.68;1.48;;;;;;;4.52;100.00;92748.88;2535242;23;20057;-83
2022/12/24 03:26:28;;;;;;;9.25;1.33;;;;;;;4.44;100.00;92750.06;2548848;23;20471;-85
2022/12/24 03:27:31;;;;;;;5.18;1.40;;;;;;;4.57;100.00;92749.63;2562339;23;20007;-84
2022/12/24 03:28:34;;;;;;;7.72;1.50;;;;;;;4.63;100.00;92750.72;2571169;23;20067;-84
2022/12/24 03:29:37;;;;;;;6.88;1.60;;;;;;;4.51;100.00;92746.59;2569679;23;20004;-84
2022/12/24 03:30:42;;;;;;;6.97;1.38;;;;;;;4.69;100.00;92749.16;2570319;23;20012;-83
2022/12/24 03:31:47;;;;;;;3.60;1.20;;;;;;;4.51;100.00;92750.00;2570702;23;20031;-82
2022/12/24 03:32:48;;;;;;;5.25;1.13;;;;;;;4.50;100.00;92737.16;2558235;23;20000;-84
2022/12/24 03:33:50;;;;;;;3.97;1.55;;;;;;;4.48;100.00;92734.91;2557512;23;20049;-84
2022/12/24 03:34:51;;;;;;;5.78;1.63;;;;;;;4.48;100.00;92734.91;2569964;23;20396;-84
2022/12/24 03:35:52;;;;;;;6.53;2.05;;;;;;;4.86;100.00;92736.94;2557764;23;20036;-83
2022/12/24 03:36:53;;;;;;;3.72;1.50;;;;;;;4.82;100.00;92739.63;2544838;23;20037;-83
2022/12/24 03:37:54;;;;;;;8.50;1.50;;;;;;;4.69;100.00;92736.66;2545047;23;20637;-83
2022/12/24 03:38:55;;;;;;;4.22;1.42;;;;;;;4.73;100.00;92732.09;2545083;23;20005;-83
2022/12/24 03:39:56;;;;;;;5.18;1.70;;;;;;;4.87;100.00;92746.41;2557462;23;20005;-83
2022/12/24 03:40:57;;;;;;;7.50;1.40;;;;;;;4.79;100.00;92746.47;2557344;23;20356;-84
2022/12/24 03:41:58;;;;;;;5.68;1.73;;;;;;;4.75;100.00;92747.63;2545085;23;20063;-84
2022/12/24 03:42:59;;;;;;;9.05;1.65;;;;;;;4.80;100.00;92749.84;2557818;23;20008;-83
2022/12/24 03:44:00;;;;;;;8.60;1.90;;;;;;;4.76;100.00;92749.13;2557140;23;20009;-84
2022/12/24 03:45:01;;;;;;;9.77;1.75;;;;;;;4.77;100.00;92747.97;2545347;23;20005;-84
2022/12/24 03:46:05;;;;;;;7.60;1.88;;;;;;;4.78;100.00;92758.19;2557786;23;20459;-84
2022/12/24 03:47:06;;;;;;;7.50;2.00;;;;;;;4.85;100.00;92759.28;2570474;23;20012;-84
2022/12/24 03:48:06;;;;;;;7.93;1.73;;;;;;;4.84;100.00;92769.13;2557451;23;20005;-83
2022/12/24 03:49:08;;;;;;;4.47;1.40;;;;;;;4.77;100.00;92767.25;2569716;23;20011;-83
2022/12/24 03:50:09;;;;;;;7.57;1.50;;;;;;;4.84;100.00;92769.13;2569912;23;20636;-84
2022/12/24 03:51:21;;;;;;;6.72;1.38;;;;;;;4.82;100.00;92774.03;2557793;23;20029;-84
2022/12/24 03:52:22;;;;;;;6.00;1.52;;;;;;;4.80;100.00;92763.84;2549713;23;20012;-84
2022/12/24 03:53:23;;;;;;;6.15;1.38;;;;;;;4.86;100.00;92769.47;2569716;23;20011;-84
2022/12/24 03:54:24;;;;;;;11.30;1.70;;;;;;;4.87;100.00;92768.34;2557433;23;20456;-84
2022/12/24 03:55:25;;;;;;;7.32;1.88;;;;;;;4.90;100.00;92756.97;2545302;23;20005;-84
2022/12/24 03:56:26;;;;;;;11.80;1.60;;;;;;;4.90;100.00;92759.63;2557546;23;20482;-84
2022/12/24 03:57:27;;;;;;;4.82;1.75;;;;;;;4.84;100.00;92763.09;2557277;23;20047;-84
2022/12/24 03:58:28;;;;;;;11.18;2.15;;;;;;;4.94;100.00;92762.25;2557906;23;20020;-84
2022/12/24 03:59:29;;;;;;;6.53;1.52;;;;;;;4.94;100.00;92754.31;2557868;23;20037;-83
2022/12/24 04:00:30;;;;;;;10.52;1.65;;;;;;;4.96;100.00;92757.31;2545595;23;20025;-84
2022/12/24 04:01:31;;;;;;;5.25;1.50;;;;;;;4.96;100.00;92760.72;2545434;23;20009;-83
2022/12/24 04:02:32;;;;;;;11.27;2.13;;;;;;;5.00;100.00;92765.97;2557740;23;20508;-84
2022/12/24 04:03:33;;;;;;;11.25;2.28;;;;;;;4.99;100.00;92752.00;2557588;23;20059;-83
2022/12/24 04:04:36;;;;;;;15.35;1.98;;;;;;;5.04;100.00;92754.22;2557485;23;20035;-84
2022/12/24 04:05:37;;;;;;;5.72;1.65;;;;;;;5.06;100.00;92745.91;2570304;23;20004;-85
2022/12/24 04:06:38;;;;;;;7.95;1.60;;;;;;;5.12;100.00;92754.19;2557509;23;20392;-84
2022/12/24 04:07:39;;;;;;;8.85;1.52;;;;;;;5.12;100.00;92759.47;2557562;23;20008;-83
2022/12/24 04:08:40;;;;;;;6.32;1.65;;;;;;;5.25;100.00;92768.47;2582712;22;20007;-83
2022/12/24 04:09:41;;;;;;;8.07;1.83;;;;;;;5.23;100.00;92770.78;2582214;23;20004;-85
2022/12/24 04:10:42;;;;;;;7.80;1.80;;;;;;;5.09;100.00;92779.53;2557602;23;20016;-84
2022/12/24 04:11:43;;;;;;;13.40;2.13;;;;;;;5.12;100.00;92772.72;2557703;23;20001;-84
2022/12/24 04:12:44;;;;;;;14.65;1.90;;;;;;;5.04;100.00;92780.72;2557364;23;20491;-84
2022/12/24 04:13:52;;;;;;;7.38;1.88;;;;;;;5.05;100.00;92776.19;2557534;23;20425;-83
2022/12/24 04:14:53;;;;;;;9.30;2.00;;;;;;;5.00;100.00;92779.22;2548206;23;20032;-84
2022/12/24 04:16:08;;;;;;;9.80;1.60;;;;;;;5.05;100.00;92781.50;2557660;23;20012;-83
2022/12/24 04:17:09;;;;;;;6.72;1.30;;;;;;;5.17;100.00;92780.25;2572704;23;20515;-84
2022/12/24 04:18:10;;;;;;;6.60;1.38;;;;;;;5.28;100.00;92780.94;2557177;23;20008;-84
2022/12/24 04:19:11;;;;;;;5.28;1.75;;;;;;;5.21;100.00;92765.09;2557545;23;20543;-85
2022/12/24 04:20:12;;;;;;;8.05;2.13;;;;;;;5.10;100.00;92765.19;2569994;23;20001;-84
2022/12/24 04:21:13;;;;;;;5.63;1.60;;;;;;;5.15;100.00;92778.00;2569835;23;20038;-85
2022/12/24 04:22:14;;;;;;;7.20;1.55;;;;;;;5.13;100.00;92774.22;2569909;23;20058;-84
2022/12/24 04:23:14;;;;;;;9.10;1.70;;;;;;;5.08;100.00;92777.28;2557385;23;20001;-85
2022/12/24 04:24:15;;;;;;;10.20;1.75;;;;;;;5.11;100.00;92781.81;2582356;22;20000;-85
2022/12/24 04:25:16;;;;;;;10.35;2.03;;;;;;;5.07;100.00;92779.19;2569832;23;20054;-85
2022/12/24 04:26:17;;;;;;;6.97;1.63;;;;;;;5.04;100.00;92782.63;2569982;23;20009;-84
2022/12/24 04:27:18;;;;;;;8.55;1.95;;;;;;;5.04;100.00;92782.63;2557468;23;20390;-84
2022/12/24 04:28:19;;;;;;;10.88;2.08;;;;;;;5.00;100.00;92785.31;2556921;23;20005;-83
2022/12/24 04:29:20;;;;;;;11.00;1.80;;;;;;;5.37;100.00;92796.41;2569888;23;20013;-83
2022/12/24 04:30:21;;;;;;;7.95;1.65;;;;;;;5.28;100.00;92804.78;2570032;23;20000;-84
2022/12/24 04:31:22;;;;;;;11.45;1.50;;;;;;;5.27;100.00;92798.00;2557515;23;20332;-84
2022/12/24 04:32:26;;;;;;;11.50;2.10;;;;;;;5.45;100.00;92809.22;2557831;23;20334;-84
2022/12/24 04:33:28;;;;;;;12.00;1.98;;;;;;;5.38;100.00;92797.91;2557823;23;20398;-85
2022/12/24 04:34:29;;;;;;;8.27;2.00;;;;;;;5.29;100.00;92798.34;2545402;23;20009;-84
2022/12/24 04:35:30;;;;;;;9.82;1.70;;;;;;;5.18;100.00;92784.41;2545168;23;20008;-85
2022/12/24 04:36:31;;;;;;;5.85;1.23;;;;;;;5.15;100.00;92785.19;2557664;23;20016;-85
2022/12/24 04:37:32;;;;;;;17.10;2.88;;;;;;;5.13;100.00;92790.88;2569991;23;20007;-84
2022/12/24 04:38:34;;;;;;;9.82;1.83;;;;;;;5.11;100.00;92795.81;2582207;22;20067;-85
2022/12/24 04:39:35;;;;;;;10.20;2.00;;;;;;;5.09;100.00;92798.09;2569591;23;20005;-85
2022/12/24 04:40:36;;;;;;;20.23;2.38;;;;;;;5.12;100.00;92796.56;2556924;23;20032;-85
2022/12/24 04:41:37;;;;;;;7.47;1.83;;;;;;;5.10;100.00;92799.63;2557538;23;20009;-85
2022/12/24 04:42:38;;;;;;;11.57;1.80;;;;;;;5.11;100.00;92808.31;2545199;23;20425;-85
2022/12/24 04:43:39;;;;;;;8.48;2.08;;;;;;;5.23;100.00;92799.91;2545232;23;20001;-85
2022/12/24 04:44:41;;;;;;;10.60;1.92;;;;;;;5.20;100.00;92812.03;2544939;23;20002;-85
2022/12/24 04:45:42;;;;;;;12.30;2.08;;;;;;;5.35;100.00;92811.94;2545861;23;20005;-84
2022/12/24 04:46:43;;;;;;;8.65;1.80;;;;;;;5.55;100.00;92815.56;2557413;23;20436;-85
2022/12/24 04:47:44;;;;;;;9.20;2.33;;;;;;;5.54;100.00;92812.19;2545012;23;20005;-84
2022/12/24 04:48:47;;;;;;;8.88;3.10;;;;;;;5.54;100.00;92806.88;2557351;23;20333;-84
2022/12/24 04:49:49;;;;;;;13.57;1.75;;;;;;;5.48;100.00;92805.75;2557576;23;20070;-83
2022/12/24 04:50:50;;;;;;;12.60;2.55;;;;;;;5.36;100.00;92790.34;2557658;23;20075;-84
2022/12/24 04:51:51;;;;;;;11.68;2.22;;;;;;;5.32;100.00;92791.53;2557305;23;20036;-83
2022/12/24 04:52:52;;;;;;;16.23;2.15;;;;;;;5.62;100.00;92790.88;2545102;23;20006;-83
2022/12/24 04:53:54;;;;;;;10.07;1.90;;;;;;;5.58;100.00;92793.59;2557362;23;20012;-84
2022/12/24 04:54:55;;;;;;;10.95;1.92;;;;;;;5.48;100.00;92800.47;2570140;23;20004;-84
2022/12/24 04:55:56;;;;;;;12.73;1.77;;;;;;;5.52;100.00;92805.75;2569701;23;20000;-84
2022/12/24 04:56:57;;;;;;;11.23;1.90;;;;;;;5.64;100.00;92804.53;2569612;23;20080;-84
2022/12/24 04:57:58;;;;;;;10.52;1.60;;;;;;;5.53;100.00;92807.25;2557530;23;20039;-85
2022/12/24 04:59:00;;;;;;;11.23;1.80;;;;;;;5.67;100.00;92801.09;2569683;23;20075;-84
2022/12/24 05:00:04;;;;;;;16.48;2.55;;;;;;;5.75;100.00;92792.69;2569959;23;20058;-84
2022/12/24 05:01:07;;;;;;;11.07;1.77;;;;;;;6.04;100.00;92792.44;2557753;23;20036;-84
2022/12/24 05:02:08;;;;;;;7.32;1.60;;;;;;;6.12;100.00;92787.81;2546044;23;20008;-85
2022/12/24 05:03:09;;;;;;;10.95;1.92;;;;;;;5.91;100.00;92784.19;2545133;23;20001;-84
2022/12/24 05:04:10;;;;;;;10.20;2.15;;;;;;;5.95;100.00;92794.81;2557218;23;20005;-85
2022/12/24 05:05:18;;;;;;;10.88;2.15;;;;;;;6.10;100.00;92782.13;2557125;23;20024;-83
2022/12/24 05:06:23;;;;;;;10.98;1.67;;;;;;;6.29;100.00;92787.63;2547608;23;20011;-84
2022/12/24 05:07:24;;;;;;;10.45;1.55;;;;;;;6.14;100.00;92794.22;2559088;23;20475;-84
2022/12/24 05:08:25;;;;;;;12.23;1.88;;;;;;;6.00;100.00;92791.72;2582185;23;20034;-84
2022/12/24 05:09:26;;;;;;;10.57;1.80;;;;;;;5.90;100.00;92790.66;2557330;23;20004;-85
2022/12/24 05:10:27;;;;;;;17.27;2.28;;;;;;;5.89;100.00;92785.75;2557302;23;20059;-85
2022/12/24 05:11:29;;;;;;;12.68;1.98;;;;;;;5.72;100.00;92780.22;2557446;23;20554;-85
2022/12/24 05:12:30;;;;;;;13.23;1.98;;;;;;;6.03;100.00;92789.03;2570071;23;20545;-84
2022/12/24 05:13:31;;;;;;;8.50;1.60;;;;;;;6.23;100.00;92793.75;2557309;23;20009;-84
2022/12/24 05:14:32;;;;;;;8.63;2.10;;;;;;;6.49;100.00;92802.94;2545190;23;20005;-83
2022/12/24 05:15:33;;;;;;;9.13;1.58;;;;;;;6.39;100.00;92785.25;2544796;23;20629;-84